Time,TemperatureF,DewpointF,PressureIn,WindDirection,WindDirectionDegrees,WindSpeedMPH,WindSpeedGustMPH,Humidity,HourlyPrecipIn,Conditions,Clouds,dailyrainin,SoftwareType,DateUTC
2013-06-08 00:02:00,67.0,36.0,-100.00,East,90,23.0,28.0,32,-99.99,,,-99.99,,2013-06-08 06:02:00,
2013-06-08 00:12:00,67.0,36.0,-100.00,East,90,23.0,28.0,32,-99.99,,,-99.99,,2013-06-08 06:12:00,
2013-06-08 00:22:00,67.0,38.0,-100.00,East,86,23.0,29.0,34,-99.99,,,-99.99,,2013-06-08 06:22:00,
2013-06-08 00:32:00,67.0,36.0,-100.00,East,88,22.0,33.0,32,-99.99,,,-99.99,,2013-06-08 06:32:00,
2013-06-08 00:42:00,67.0,36.0,-100.00,East,88,22.0,33.0,32,-99.99,,,-99.99,,2013-06-08 06:42:00,
2013-06-08 00:52:00,66.0,35.0,-100.00,East,85,18.0,26.0,32,-99.99,,,-99.99,,2013-06-08 06:52:00,
2013-06-08 01:02:00,66.0,36.0,-100.00,East,89,18.0,24.0,33,-99.99,,,-99.99,,2013-06-08 07:02:00,
2013-06-08 01:22:00,66.0,37.0,-100.00,East,88,16.0,22.0,34,-99.99,,,-99.99,,2013-06-08 07:22:00,
2013-06-08 01:32:00,66.0,36.0,-100.00,East,88,16.0,21.0,33,-99.99,,,-99.99,,2013-06-08 07:32:00,
2013-06-08 01:52:00,66.0,36.0,-100.00,East,88,16.0,22.0,33,-99.99,,,-99.99,,2013-06-08 07:52:00,
2013-06-08 02:02:00,66.0,37.0,-100.00,East,79,17.0,23.0,34,-99.99,,,-99.99,,2013-06-08 08:02:00,
2013-06-08 02:22:00,65.0,36.0,-100.00,East,88,16.0,21.0,34,-99.99,,,-99.99,,2013-06-08 08:22:00,
2013-06-08 02:32:00,65.0,37.0,-100.00,East,81,15.0,21.0,36,-99.99,,,-99.99,,2013-06-08 08:32:00,
2013-06-08 02:53:00,65.0,37.0,-100.00,East,82,19.0,23.0,36,-99.99,,,-99.99,,2013-06-08 08:53:00,
2013-06-08 03:02:00,65.0,37.0,-100.00,East,86,16.0,20.0,36,-99.99,,,-99.99,,2013-06-08 09:02:00,
2013-06-08 03:22:00,64.0,37.0,-100.00,ENE,78,16.0,20.0,37,-99.99,,,-99.99,,2013-06-08 09:22:00,
2013-06-08 03:33:00,64.0,37.0,-100.00,ENE,69,15.0,24.0,36,-99.99,,,-99.99,,2013-06-08 09:33:00,
2013-06-08 04:33:00,66.0,38.0,-100.00,ESE,105,3.0,15.0,36,-99.99,,,-99.99,,2013-06-08 10:33:00,
2013-06-08 04:53:00,64.0,39.0,-100.00,ESE,109,3.0,15.0,39,-99.99,,,-99.99,,2013-06-08 10:53:00,
2013-06-08 05:02:00,64.0,37.0,-100.00,ESE,116,0.0,5.0,37,-99.99,,,-99.99,,2013-06-08 11:02:00,
2013-06-08 05:22:00,64.0,39.0,-100.00,ESE,110,1.0,6.0,39,-99.99,,,-99.99,,2013-06-08 11:22:00,
2013-06-08 05:32:00,64.0,38.0,-100.00,ESE,108,0.0,7.0,38,-99.99,,,-99.99,,2013-06-08 11:32:00,
2013-06-08 05:52:00,64.0,38.0,-100.00,ESE,108,1.0,7.0,38,-99.99,,,-99.99,,2013-06-08 11:52:00,
2013-06-08 06:02:00,64.0,39.0,-100.00,ESE,116,0.0,8.0,39,-99.99,,,-99.99,,2013-06-08 12:02:00,
2013-06-08 06:12:00,64.0,39.0,-100.00,ESE,116,0.0,8.0,39,-99.99,,,-99.99,,2013-06-08 12:12:00,
2013-06-08 06:22:00,64.0,38.0,-100.00,ESE,103,1.0,7.0,38,-99.99,,,-99.99,,2013-06-08 12:22:00,
2013-06-08 06:32:00,64.0,38.0,-100.00,East,94,0.0,10.0,38,-99.99,,,-99.99,,2013-06-08 12:32:00,
2013-06-08 06:52:00,65.0,37.0,-100.00,ESE,112,0.0,5.0,36,-99.99,,,-99.99,,2013-06-08 12:52:00,
2013-06-08 07:02:00,67.0,40.0,-100.00,ESE,108,0.0,8.0,37,-99.99,,,-99.99,,2013-06-08 13:02:00,
2013-06-08 07:12:00,67.0,40.0,-100.00,ESE,108,0.0,8.0,37,-99.99,,,-99.99,,2013-06-08 13:12:00,
2013-06-08 07:22:00,68.0,41.0,-100.00,ESE,120,0.0,4.0,37,-99.99,,,-99.99,,2013-06-08 13:22:00,
2013-06-08 07:32:00,68.0,41.0,-100.00,East,88,1.0,5.0,38,-99.99,,,-99.99,,2013-06-08 13:32:00,
2013-06-08 07:42:00,68.0,41.0,-100.00,East,88,1.0,5.0,38,-99.99,,,-99.99,,2013-06-08 13:42:00,
2013-06-08 07:52:00,68.0,41.0,-100.00,East,85,11.0,16.0,38,-99.99,,,-99.99,,2013-06-08 13:52:00,
2013-06-08 08:02:00,68.0,41.0,-100.00,ESE,107,0.0,5.0,37,-99.99,,,-99.99,,2013-06-08 14:02:00,
2013-06-08 08:12:00,68.0,41.0,-100.00,ESE,107,0.0,5.0,37,-99.99,,,-99.99,,2013-06-08 14:12:00,
2013-06-08 08:22:00,69.0,42.0,-100.00,East,89,10.0,15.0,38,-99.99,,,-99.99,,2013-06-08 14:22:00,
2013-06-08 08:32:00,69.0,42.0,-100.00,East,84,9.0,12.0,38,-99.99,,,-99.99,,2013-06-08 14:32:00,
2013-06-08 08:42:00,69.0,42.0,-100.00,East,84,9.0,12.0,38,-99.99,,,-99.99,,2013-06-08 14:42:00,
2013-06-08 08:52:00,70.0,43.0,-100.00,East,90,6.0,13.0,38,-99.99,,,-99.99,,2013-06-08 14:52:00,
2013-06-08 09:02:00,72.0,45.0,-100.00,East,80,3.0,12.0,38,-99.99,,,-99.99,,2013-06-08 15:02:00,
2013-06-08 09:12:00,72.0,45.0,-100.00,East,80,3.0,12.0,38,-99.99,,,-99.99,,2013-06-08 15:12:00,
2013-06-08 09:22:00,74.0,46.0,-100.00,East,79,5.0,10.0,37,-99.99,,,-99.99,,2013-06-08 15:22:00,
2013-06-08 09:32:00,74.0,46.0,-100.00,East,90,2.0,12.0,37,-99.99,,,-99.99,,2013-06-08 15:32:00,
2013-06-08 09:42:00,74.0,46.0,-100.00,East,90,2.0,12.0,37,-99.99,,,-99.99,,2013-06-08 15:42:00,
2013-06-08 09:53:00,74.0,46.0,-100.00,East,90,0.0,8.0,37,-99.99,,,-99.99,,2013-06-08 15:53:00,
2013-06-08 10:03:00,76.0,47.0,-100.00,East,91,0.0,0.0,36,-99.99,,,-99.99,,2013-06-08 16:03:00,
2013-06-08 10:12:00,76.0,47.0,-100.00,East,91,0.0,0.0,36,-99.99,,,-99.99,,2013-06-08 16:12:00,
2013-06-08 10:23:00,80.0,51.0,-100.00,WSW,243,0.0,0.0,36,-99.99,,,-99.99,,2013-06-08 16:23:00,
2013-06-08 10:32:00,82.0,52.0,-100.00,SW,231,0.0,2.0,35,-99.99,,,-99.99,,2013-06-08 16:32:00,
2013-06-08 10:42:00,82.0,52.0,-100.00,SW,231,0.0,2.0,35,-99.99,,,-99.99,,2013-06-08 16:42:00,
2013-06-08 10:53:00,79.0,48.0,-100.00,WSW,245,2.0,8.0,34,-99.99,,,-99.99,,2013-06-08 16:53:00,
2013-06-08 11:02:00,78.0,46.0,-100.00,West,269,5.0,13.0,32,-99.99,,,-99.99,,2013-06-08 17:02:00,
2013-06-08 11:12:00,78.0,46.0,-100.00,West,269,5.0,13.0,32,-99.99,,,-99.99,,2013-06-08 17:12:00,
2013-06-08 11:22:00,79.0,46.0,-100.00,WSW,258,6.0,13.0,31,-99.99,,,-99.99,,2013-06-08 17:22:00,
2013-06-08 11:32:00,81.0,46.0,-100.00,West,267,11.0,17.0,29,-99.99,,,-99.99,,2013-06-08 17:32:00,
2013-06-08 11:42:00,81.0,46.0,-100.00,West,267,11.0,17.0,29,-99.99,,,-99.99,,2013-06-08 17:42:00,
2013-06-08 11:52:00,81.0,44.0,-100.00,West,277,13.0,16.0,27,-99.99,,,-99.99,,2013-06-08 17:52:00,
2013-06-08 12:02:00,82.0,45.0,-100.00,WNW,287,10.0,15.0,27,-99.99,,,-99.99,,2013-06-08 18:02:00,
2013-06-08 12:12:00,82.0,45.0,-100.00,WNW,287,10.0,15.0,27,-99.99,,,-99.99,,2013-06-08 18:12:00,
2013-06-08 12:22:00,83.0,45.0,-100.00,WNW,286,7.0,13.0,26,-99.99,,,-99.99,,2013-06-08 18:22:00,
2013-06-08 12:32:00,83.0,44.0,-100.00,West,279,11.0,15.0,25,-99.99,,,-99.99,,2013-06-08 18:32:00,
2013-06-08 12:42:00,83.0,44.0,-100.00,West,279,11.0,15.0,25,-99.99,,,-99.99,,2013-06-08 18:42:00,
2013-06-08 12:52:00,83.0,41.0,-100.00,WNW,289,9.0,13.0,23,-99.99,,,-99.99,,2013-06-08 18:52:00,
2013-06-08 13:02:00,84.0,41.0,-100.00,West,266,11.0,17.0,22,-99.99,,,-99.99,,2013-06-08 19:02:00,
2013-06-08 13:12:00,84.0,41.0,-100.00,West,266,11.0,17.0,22,-99.99,,,-99.99,,2013-06-08 19:12:00,
2013-06-08 13:22:00,85.0,42.0,-100.00,WNW,286,8.0,14.0,22,-99.99,,,-99.99,,2013-06-08 19:22:00,
2013-06-08 13:32:00,86.0,41.0,-100.00,West,262,10.0,19.0,21,-99.99,,,-99.99,,2013-06-08 19:32:00,
2013-06-08 13:42:00,86.0,41.0,-100.00,West,262,10.0,19.0,21,-99.99,,,-99.99,,2013-06-08 19:42:00,
2013-06-08 13:53:00,85.0,41.0,-100.00,West,264,12.0,17.0,21,-99.99,,,-99.99,,2013-06-08 19:53:00,
2013-06-08 14:02:00,87.0,41.0,-100.00,West,265,12.0,17.0,20,-99.99,,,-99.99,,2013-06-08 20:02:00,
2013-06-08 14:12:00,87.0,41.0,-100.00,West,265,12.0,17.0,20,-99.99,,,-99.99,,2013-06-08 20:12:00,
2013-06-08 14:22:00,87.0,41.0,-100.00,West,265,11.0,18.0,20,-99.99,,,-99.99,,2013-06-08 20:22:00,
2013-06-08 14:32:00,90.0,42.0,-100.00,WNW,283,10.0,14.0,19,-99.99,,,-99.99,,2013-06-08 20:32:00,
2013-06-08 14:42:00,90.0,42.0,-100.00,WNW,283,10.0,14.0,19,-99.99,,,-99.99,,2013-06-08 20:42:00,
2013-06-08 14:52:00,91.0,42.0,-100.00,West,266,7.0,15.0,18,-99.99,,,-99.99,,2013-06-08 20:52:00,
2013-06-08 15:02:00,92.0,42.0,-100.00,WNW,286,8.0,14.0,18,-99.99,,,-99.99,,2013-06-08 21:02:00,
2013-06-08 15:12:00,92.0,42.0,-100.00,WNW,286,8.0,14.0,18,-99.99,,,-99.99,,2013-06-08 21:12:00,
2013-06-08 15:22:00,92.0,41.0,-100.00,West,271,9.0,19.0,17,-99.99,,,-99.99,,2013-06-08 21:22:00,
2013-06-08 15:33:00,93.0,42.0,-100.00,West,275,10.0,15.0,17,-99.99,,,-99.99,,2013-06-08 21:33:00,
2013-06-08 15:43:00,93.0,42.0,-100.00,West,275,10.0,15.0,17,-99.99,,,-99.99,,2013-06-08 21:43:00,
2013-06-08 15:53:00,92.0,39.0,-100.00,West,272,10.0,19.0,16,-99.99,,,-99.99,,2013-06-08 21:53:00,
2013-06-08 16:02:00,92.0,38.0,-100.00,WNW,284,8.0,14.0,15,-99.99,,,-99.99,,2013-06-08 22:02:00,
2013-06-08 16:12:00,94.0,39.0,-100.00,West,276,2.0,12.0,15,-99.99,,,-99.99,,2013-06-08 22:12:00,
2013-06-08 16:22:00,94.0,39.0,-100.00,West,276,2.0,12.0,15,-99.99,,,-99.99,,2013-06-08 22:22:00,
2013-06-08 16:33:00,96.0,41.0,-100.00,West,280,8.0,14.0,15,-99.99,,,-99.99,,2013-06-08 22:33:00,
2013-06-08 16:42:00,94.0,38.0,-100.00,West,262,14.0,19.0,14,-99.99,,,-99.99,,2013-06-08 22:42:00,
2013-06-08 16:52:00,94.0,38.0,-100.00,West,262,14.0,19.0,14,-99.99,,,-99.99,,2013-06-08 22:52:00,
2013-06-08 17:02:00,94.0,38.0,-100.00,WSW,238,4.0,16.0,14,-99.99,,,-99.99,,2013-06-08 23:02:00,
2013-06-08 17:12:00,97.0,40.0,-100.00,WNW,292,5.0,9.0,14,-99.99,,,-99.99,,2013-06-08 23:12:00,
2013-06-08 17:22:00,97.0,40.0,-100.00,WNW,292,5.0,9.0,14,-99.99,,,-99.99,,2013-06-08 23:22:00,
2013-06-08 17:32:00,97.0,38.0,-100.00,WNW,292,3.0,13.0,13,-99.99,,,-99.99,,2013-06-08 23:32:00,
2013-06-08 17:42:00,97.0,38.0,-100.00,WNW,292,3.0,13.0,13,-99.99,,,-99.99,,2013-06-08 23:42:00,
2013-06-08 17:52:00,96.0,37.0,-100.00,NW,326,2.0,11.0,13,-99.99,,,-99.99,,2013-06-08 23:52:00,
2013-06-08 18:02:00,97.0,38.0,-100.00,WNW,289,0.0,8.0,13,-99.99,,,-99.99,,2013-06-09 00:02:00,
2013-06-08 18:12:00,97.0,38.0,-100.00,WNW,289,0.0,8.0,13,-99.99,,,-99.99,,2013-06-09 00:12:00,
2013-06-08 18:22:00,97.0,38.0,-100.00,WSW,258,3.0,8.0,13,-99.99,,,-99.99,,2013-06-09 00:22:00,
2013-06-08 18:32:00,96.0,35.0,-100.00,West,278,2.0,7.0,12,-99.99,,,-99.99,,2013-06-09 00:32:00,
2013-06-08 18:42:00,96.0,35.0,-100.00,West,278,2.0,7.0,12,-99.99,,,-99.99,,2013-06-09 00:42:00,
2013-06-08 18:52:00,96.0,35.0,-100.00,West,265,0.0,4.0,12,-99.99,,,-99.99,,2013-06-09 00:52:00,
2013-06-08 19:02:00,95.0,34.0,-100.00,West,268,11.0,15.0,12,-99.99,,,-99.99,,2013-06-09 01:02:00,
2013-06-08 19:12:00,95.0,34.0,-100.00,West,273,13.0,20.0,12,-99.99,,,-99.99,,2013-06-09 01:12:00,
2013-06-08 19:22:00,95.0,34.0,-100.00,West,273,13.0,20.0,12,-99.99,,,-99.99,,2013-06-09 01:22:00,
2013-06-08 19:32:00,94.0,34.0,-100.00,West,277,15.0,21.0,12,-99.99,,,-99.99,,2013-06-09 01:32:00,
2013-06-08 19:42:00,94.0,34.0,-100.00,West,277,15.0,21.0,12,-99.99,,,-99.99,,2013-06-09 01:42:00,
2013-06-08 19:52:00,93.0,31.0,-100.00,West,273,15.0,22.0,11,-99.99,,,-99.99,,2013-06-09 01:52:00,
2013-06-08 20:02:00,92.0,30.0,-100.00,West,273,11.0,18.0,11,-99.99,,,-99.99,,2013-06-09 02:02:00,
2013-06-08 20:12:00,92.0,30.0,-100.00,West,273,11.0,18.0,11,-99.99,,,-99.99,,2013-06-09 02:12:00,
2013-06-08 20:22:00,92.0,30.0,-100.00,West,277,10.0,16.0,11,-99.99,,,-99.99,,2013-06-09 02:22:00,
2013-06-08 20:32:00,91.0,31.0,-100.00,West,273,11.0,19.0,12,-99.99,,,-99.99,,2013-06-09 02:32:00,
2013-06-08 20:42:00,91.0,31.0,-100.00,West,273,11.0,19.0,12,-99.99,,,-99.99,,2013-06-09 02:42:00,
2013-06-08 20:52:00,90.0,31.0,-100.00,West,275,11.0,15.0,12,-99.99,,,-99.99,,2013-06-09 02:52:00,
2013-06-08 21:02:00,89.0,30.0,-100.00,West,278,10.0,15.0,12,-99.99,,,-99.99,,2013-06-09 03:02:00,
2013-06-08 21:12:00,89.0,30.0,-100.00,West,278,10.0,15.0,12,-99.99,,,-99.99,,2013-06-09 03:12:00,
2013-06-08 21:22:00,89.0,30.0,-100.00,WNW,298,9.0,14.0,12,-99.99,,,-99.99,,2013-06-09 03:22:00,
2013-06-08 21:33:00,88.0,29.0,-100.00,WNW,301,8.0,12.0,12,-99.99,,,-99.99,,2013-06-09 03:33:00,
2013-06-08 21:43:00,88.0,29.0,-100.00,WNW,301,8.0,12.0,12,-99.99,,,-99.99,,2013-06-09 03:43:00,
2013-06-08 21:53:00,87.0,28.0,-100.00,WNW,292,10.0,18.0,12,-99.99,,,-99.99,,2013-06-09 03:53:00,
2013-06-08 22:02:00,87.0,28.0,-100.00,WNW,288,8.0,14.0,12,-99.99,,,-99.99,,2013-06-09 04:02:00,
2013-06-08 22:12:00,87.0,28.0,-100.00,WNW,288,8.0,14.0,12,-99.99,,,-99.99,,2013-06-09 04:12:00,
2013-06-08 22:22:00,87.0,28.0,-100.00,WNW,300,13.0,19.0,12,-99.99,,,-99.99,,2013-06-09 04:22:00,
2013-06-08 22:32:00,87.0,26.0,-100.00,WNW,298,11.0,16.0,11,-99.99,,,-99.99,,2013-06-09 04:32:00,
2013-06-08 22:42:00,87.0,26.0,-100.00,WNW,298,11.0,16.0,11,-99.99,,,-99.99,,2013-06-09 04:42:00,
2013-06-08 22:53:00,87.0,26.0,-100.00,WNW,290,12.0,18.0,11,-99.99,,,-99.99,,2013-06-09 04:53:00,
2013-06-08 23:02:00,86.0,25.0,-100.00,West,279,9.0,18.0,11,-99.99,,,-99.99,,2013-06-09 05:02:00,
2013-06-08 23:12:00,86.0,25.0,-100.00,West,279,9.0,18.0,11,-99.99,,,-99.99,,2013-06-09 05:12:00,
2013-06-08 23:22:00,86.0,25.0,-100.00,WNW,285,16.0,26.0,11,-99.99,,,-99.99,,2013-06-09 05:22:00,
2013-06-08 23:32:00,86.0,25.0,-100.00,West,281,13.0,22.0,11,-99.99,,,-99.99,,2013-06-09 05:32:00,
2013-06-08 23:42:00,86.0,25.0,-100.00,West,281,13.0,22.0,11,-99.99,,,-99.99,,2013-06-09 05:42:00,
2013-06-08 23:52:00,85.0,25.0,-100.00,WNW,284,18.0,25.0,11,-99.99,,,-99.99,,2013-06-09 05:52:00,